createdAt,value
2023-05-06T00:00:42.826Z,7.15
2023-05-06T00:02:14.434Z,7.18
2023-05-06T00:03:46.297Z,7.50
2023-05-06T00:05:21.255Z,8.65
2023-05-06T00:06:53.473Z,6.63
2023-05-06T00:08:25.074Z,7.57
2023-05-06T00:09:56.668Z,7.32
2023-05-06T00:11:28.248Z,7.40
2023-05-06T00:12:59.823Z,7.32
2023-05-06T00:14:31.474Z,8.10
2023-05-06T00:16:03.226Z,8.23
2023-05-06T00:17:34.999Z,8.15
2023-05-06T00:19:07.009Z,7.63
2023-05-06T00:20:39.197Z,7.40
2023-05-06T00:22:10.824Z,8.63
2023-05-06T00:23:42.349Z,8.60
2023-05-06T00:25:14.066Z,7.57
2023-05-06T00:26:45.676Z,8.25
2023-05-06T00:28:17.409Z,6.93
2023-05-06T00:29:49.191Z,8.15
2023-05-06T00:31:20.903Z,8.05
2023-05-06T00:32:52.803Z,8.38
2023-05-06T00:34:24.559Z,7.63
2023-05-06T00:35:56.629Z,7.55
2023-05-06T00:37:28.264Z,7.18
2023-05-06T00:39:00.143Z,7.78
2023-05-06T00:40:31.739Z,8.40
2023-05-06T00:42:03.627Z,8.05
2023-05-06T00:43:35.303Z,9.18
2023-05-06T00:45:07.646Z,8.15
2023-05-06T00:46:39.926Z,8.18
2023-05-06T00:48:11.916Z,8.02
2023-05-06T00:49:44.248Z,7.90
2023-05-06T00:51:16.595Z,7.30
2023-05-06T00:52:49.318Z,7.13
2023-05-06T00:54:21.583Z,7.45
2023-05-06T00:55:53.224Z,9.48
2023-05-06T00:57:24.915Z,7.80
2023-05-06T00:58:56.555Z,7.97
2023-05-06T01:00:28.566Z,7.63
2023-05-06T01:02:01.025Z,7.93
2023-05-06T01:03:33.166Z,8.13
2023-05-06T01:05:05.783Z,7.75
2023-05-06T01:07:23.567Z,7.55
2023-05-06T01:09:06.012Z,7.90
2023-05-06T01:10:55.099Z,8.57
2023-05-06T01:12:34.053Z,8.43
2023-05-06T01:14:12.659Z,8.48
2023-05-06T01:15:52.767Z,7.97
2023-05-06T01:17:28.217Z,7.90
2023-05-06T01:19:01.896Z,9.75
2023-05-06T01:20:34.072Z,7.90
2023-05-06T01:22:06.897Z,7.30
2023-05-06T01:23:57.525Z,8.45
2023-05-06T01:25:30.240Z,8.05
2023-05-06T01:27:01.787Z,9.10
2023-05-06T01:28:33.309Z,9.07
2023-05-06T01:30:07.424Z,8.13
2023-05-06T01:31:49.359Z,8.30
2023-05-06T01:33:29.350Z,8.85
2023-05-06T01:35:28.801Z,7.50
2023-05-06T01:37:18.960Z,8.63
2023-05-06T01:39:09.352Z,8.65
2023-05-06T01:40:42.777Z,8.88
2023-05-06T01:42:15.445Z,7.15
2023-05-06T01:43:49.061Z,7.80
2023-05-06T01:45:24.442Z,8.82
2023-05-06T01:46:56.355Z,7.60
2023-05-06T01:48:33.682Z,7.82
2023-05-06T01:50:05.787Z,8.23
2023-05-06T01:51:38.680Z,6.90
2023-05-06T01:53:10.275Z,7.78
2023-05-06T01:54:41.857Z,8.38
2023-05-06T01:56:13.474Z,7.63
2023-05-06T01:57:45.023Z,7.28
2023-05-06T01:59:16.624Z,8.93
2023-05-06T02:00:48.245Z,7.53
2023-05-06T02:02:20.238Z,7.50
2023-05-06T02:03:52.250Z,6.53
2023-05-06T02:05:24.198Z,7.53
2023-05-06T02:06:59.911Z,7.43
2023-05-06T02:08:31.487Z,7.43
2023-05-06T02:10:03.192Z,7.45
2023-05-06T02:11:35.945Z,8.32
2023-05-06T02:13:11.865Z,7.78
2023-05-06T02:14:43.698Z,7.57
2023-05-06T02:16:15.375Z,8.43
2023-05-06T02:17:46.977Z,8.88
2023-05-06T02:19:19.148Z,8.13
2023-05-06T02:20:51.307Z,7.20
2023-05-06T02:22:22.947Z,8.00
2023-05-06T02:23:54.543Z,7.82
2023-05-06T02:25:26.229Z,7.40
2023-05-06T02:26:57.862Z,7.90
2023-05-06T02:28:29.446Z,8.50
2023-05-06T02:30:01.154Z,7.70
2023-05-06T02:31:34.312Z,8.93
2023-05-06T02:33:06.210Z,6.90
2023-05-06T02:34:37.796Z,7.63
2023-05-06T02:36:09.461Z,8.20
2023-05-06T02:37:41.558Z,7.68
2023-05-06T02:39:13.235Z,7.97
2023-05-06T02:40:45.019Z,7.15
2023-05-06T02:42:16.768Z,7.25
2023-05-06T02:43:49.866Z,8.38
2023-05-06T02:45:21.740Z,7.63
2023-05-06T02:46:53.369Z,7.80
2023-05-06T02:48:25.006Z,7.60
2023-05-06T02:49:56.680Z,8.02
2023-05-06T02:51:28.338Z,7.38
2023-05-06T02:52:59.953Z,7.47
2023-05-06T02:54:31.549Z,7.90
2023-05-06T02:56:03.208Z,7.88
2023-05-06T02:57:34.800Z,8.30
2023-05-06T02:59:06.405Z,7.30
2023-05-06T03:00:38.102Z,7.13
2023-05-06T03:02:09.657Z,7.20
2023-05-06T03:03:42.057Z,7.45
2023-05-06T03:05:13.659Z,7.13
2023-05-06T03:06:45.256Z,6.25
2023-05-06T03:08:17.206Z,6.72
2023-05-06T03:09:49.000Z,6.80
2023-05-06T03:11:21.138Z,6.50
2023-05-06T03:12:52.698Z,8.05
2023-05-06T03:14:24.459Z,6.15
2023-05-06T03:15:56.414Z,6.05
2023-05-06T03:17:28.443Z,6.20
2023-05-06T03:19:00.377Z,5.95
2023-05-06T03:20:32.408Z,6.55
2023-05-06T03:22:05.494Z,6.95
2023-05-06T03:23:39.199Z,6.07
2023-05-06T03:25:11.033Z,5.90
2023-05-06T03:26:44.828Z,6.32
2023-05-06T03:28:17.886Z,6.05
2023-05-06T03:29:51.607Z,7.43
2023-05-06T03:31:24.872Z,6.47
2023-05-06T03:33:00.478Z,8.02
2023-05-06T03:34:36.351Z,6.78
2023-05-06T03:36:08.343Z,6.00
2023-05-06T03:37:40.694Z,5.97
2023-05-06T03:39:12.500Z,7.53
2023-05-06T03:40:44.705Z,8.55
2023-05-06T03:42:17.995Z,8.43
2023-05-06T03:43:51.172Z,10.05
2023-05-06T03:45:26.956Z,8.88
2023-05-06T03:46:59.578Z,9.52
2023-05-06T03:48:31.908Z,8.88
2023-05-06T03:50:04.136Z,8.80
2023-05-06T03:51:37.708Z,9.50
2023-05-06T03:53:09.816Z,8.50
2023-05-06T03:54:44.308Z,8.05
2023-05-06T03:56:18.155Z,9.50
2023-05-06T03:57:52.010Z,10.38
2023-05-06T03:59:24.944Z,9.40
2023-05-06T04:00:56.653Z,9.52
2023-05-06T04:02:29.358Z,8.45
2023-05-06T04:04:02.542Z,9.60
2023-05-06T04:05:34.487Z,10.40
2023-05-06T04:07:06.585Z,10.35
2023-05-06T04:08:38.219Z,8.90
2023-05-06T04:10:10.237Z,9.23
2023-05-06T04:11:42.221Z,8.73
2023-05-06T04:13:18.017Z,8.45
2023-05-06T04:14:50.536Z,8.32
2023-05-06T04:16:22.139Z,8.38
2023-05-06T04:17:53.782Z,8.43
2023-05-06T04:19:26.937Z,8.60
2023-05-06T04:21:00.165Z,8.93
2023-05-06T04:22:33.142Z,7.57
2023-05-06T04:24:04.975Z,8.20
2023-05-06T04:25:42.681Z,7.38
2023-05-06T04:27:15.209Z,7.50
2023-05-06T04:28:48.880Z,7.53
2023-05-06T04:30:21.332Z,7.38
2023-05-06T04:31:54.234Z,7.45
2023-05-06T04:33:27.438Z,7.72
2023-05-06T04:35:02.985Z,7.13
2023-05-06T04:36:35.159Z,7.35
2023-05-06T04:38:27.116Z,8.23
2023-05-06T04:40:02.383Z,7.13
2023-05-06T04:41:35.066Z,6.47
2023-05-06T04:43:06.707Z,6.95
2023-05-06T04:44:38.321Z,6.63
2023-05-06T04:46:13.431Z,6.75
2023-05-06T04:47:46.878Z,6.25
2023-05-06T04:49:19.495Z,7.32
2023-05-06T04:50:51.173Z,7.00
2023-05-06T04:52:22.914Z,6.95
2023-05-06T04:53:56.072Z,7.00
2023-05-06T04:55:27.896Z,6.85
2023-05-06T04:56:59.565Z,6.68
2023-05-06T04:58:31.566Z,6.85
2023-05-06T05:00:03.509Z,7.05
2023-05-06T05:01:35.222Z,7.18
2023-05-06T05:03:07.053Z,6.93
2023-05-06T05:04:38.789Z,6.75
2023-05-06T05:06:13.226Z,6.60
2023-05-06T05:07:45.016Z,8.48
2023-05-06T05:09:16.695Z,7.13
2023-05-06T05:10:49.924Z,7.13
2023-05-06T05:12:25.196Z,7.15
2023-05-06T05:13:59.461Z,6.70
2023-05-06T05:15:32.617Z,7.75
2023-05-06T05:17:04.236Z,7.57
2023-05-06T05:18:35.906Z,7.47
2023-05-06T05:20:13.931Z,8.13
2023-05-06T05:21:45.714Z,7.93
2023-05-06T05:23:18.168Z,6.18
2023-05-06T05:24:50.616Z,6.43
2023-05-06T05:26:22.272Z,6.93
2023-05-06T05:27:56.437Z,6.18
2023-05-06T05:29:28.064Z,6.75
2023-05-06T05:31:04.181Z,6.43
2023-05-06T05:32:38.634Z,7.20
2023-05-06T05:34:10.261Z,6.38
2023-05-06T05:35:41.971Z,7.45
2023-05-06T05:37:14.297Z,6.68
2023-05-06T05:38:47.775Z,6.45
2023-05-06T05:40:19.799Z,6.68
2023-05-06T05:41:54.225Z,7.07
2023-05-06T05:43:26.946Z,6.00
2023-05-06T05:45:00.144Z,6.30
2023-05-06T05:46:31.875Z,6.68
2023-05-06T05:48:04.126Z,6.07
2023-05-06T05:49:36.203Z,6.68
2023-05-06T05:51:08.425Z,5.68
2023-05-06T05:52:40.941Z,5.45
2023-05-06T05:54:14.296Z,5.78
2023-05-06T05:55:46.912Z,5.85
2023-05-06T05:57:19.397Z,6.20
2023-05-06T05:58:51.353Z,5.88
2023-05-06T06:00:23.078Z,6.22
2023-05-06T06:02:00.408Z,6.15
2023-05-06T06:03:32.716Z,6.95
2023-05-06T06:05:05.236Z,7.20
2023-05-06T06:06:37.201Z,6.72
2023-05-06T06:08:09.085Z,6.68
2023-05-06T06:09:41.717Z,6.80
2023-05-06T06:11:13.373Z,7.18
2023-05-06T06:12:46.937Z,6.75
2023-05-06T06:14:23.512Z,7.80
2023-05-06T06:15:56.763Z,6.05
2023-05-06T06:17:28.435Z,6.50
2023-05-06T06:19:01.883Z,7.68
2023-05-06T06:20:34.128Z,7.32
2023-05-06T06:22:05.919Z,7.35
2023-05-06T06:23:39.246Z,8.32
2023-05-06T06:25:11.722Z,7.35
2023-05-06T06:26:43.412Z,6.82
2023-05-06T06:28:15.098Z,6.18
2023-05-06T06:29:52.157Z,6.22
2023-05-06T06:31:23.826Z,6.80
2023-05-06T06:32:56.530Z,5.75
2023-05-06T06:34:28.627Z,5.60
2023-05-06T06:36:00.289Z,5.25
2023-05-06T06:37:31.921Z,5.90
2023-05-06T06:39:03.699Z,4.93
2023-05-06T06:40:35.576Z,4.40
2023-05-06T06:42:07.422Z,6.03
2023-05-06T06:43:44.521Z,5.63
2023-05-06T06:45:23.697Z,4.97
2023-05-06T06:46:55.987Z,5.03
2023-05-06T06:48:27.686Z,4.70
2023-05-06T06:49:59.390Z,4.82
2023-05-06T06:51:32.029Z,4.38
2023-05-06T06:53:06.142Z,4.90
2023-05-06T06:54:38.786Z,4.10
2023-05-06T06:56:14.317Z,4.93
2023-05-06T06:57:46.046Z,5.45
2023-05-06T06:59:17.600Z,4.90
2023-05-06T07:00:49.265Z,5.85
2023-05-06T07:02:22.095Z,5.18
2023-05-06T07:03:53.772Z,4.03
2023-05-06T07:05:26.933Z,4.45
2023-05-06T07:06:58.487Z,4.75
2023-05-06T07:08:30.225Z,4.80
2023-05-06T07:10:01.835Z,5.07
2023-05-06T07:11:33.583Z,4.75
2023-05-06T07:13:05.423Z,5.38
2023-05-06T07:14:37.390Z,5.20
2023-05-06T07:16:09.062Z,4.97
2023-05-06T07:17:40.873Z,5.57
2023-05-06T07:19:12.625Z,6.65
2023-05-06T07:20:44.229Z,6.20
2023-05-06T07:22:15.944Z,5.72
2023-05-06T07:23:47.557Z,7.32
2023-05-06T07:25:19.469Z,7.18
2023-05-06T07:26:51.050Z,7.07
2023-05-06T07:28:22.603Z,6.72
2023-05-06T07:29:54.336Z,6.95
2023-05-06T07:31:26.552Z,6.03
2023-05-06T07:32:58.238Z,6.85
2023-05-06T07:34:29.941Z,6.97
2023-05-06T07:36:01.606Z,6.97
2023-05-06T07:37:33.272Z,5.63
2023-05-06T07:39:04.979Z,7.43
2023-05-06T07:40:36.592Z,7.85
2023-05-06T07:42:10.800Z,8.10
2023-05-06T07:43:42.458Z,7.32
2023-05-06T07:45:15.180Z,6.95
2023-05-06T07:46:47.074Z,6.68
2023-05-06T07:48:20.197Z,6.75
2023-05-06T07:49:52.086Z,6.93
2023-05-06T07:51:24.578Z,7.05
2023-05-06T07:52:56.616Z,6.53
2023-05-06T07:54:28.905Z,6.72
2023-05-06T07:56:02.615Z,6.85
2023-05-06T07:57:34.282Z,6.40
2023-05-06T07:59:06.538Z,6.28
2023-05-06T08:00:38.464Z,7.50
2023-05-06T08:02:10.373Z,5.65
2023-05-06T08:03:42.365Z,7.10
2023-05-06T08:05:14.902Z,5.97
2023-05-06T08:06:46.569Z,6.10
2023-05-06T08:08:19.605Z,6.68
2023-05-06T08:09:51.556Z,5.95
2023-05-06T08:11:23.785Z,7.20
2023-05-06T08:12:55.857Z,6.68
2023-05-06T08:14:28.317Z,6.28
2023-05-06T08:16:03.045Z,6.80
2023-05-06T08:17:35.586Z,6.35
2023-05-06T08:19:08.736Z,5.55
2023-05-06T08:20:40.639Z,5.53
2023-05-06T08:22:12.364Z,5.60
2023-05-06T08:23:44.071Z,5.10
2023-05-06T08:25:17.559Z,5.28
2023-05-06T08:26:50.214Z,6.78
2023-05-06T08:28:24.596Z,5.97
2023-05-06T08:29:57.410Z,5.22
2023-05-06T08:31:31.207Z,4.68
2023-05-06T08:33:03.093Z,4.75
2023-05-06T08:34:35.052Z,4.97
2023-05-06T08:36:07.016Z,4.90
2023-05-06T08:37:38.772Z,4.80
2023-05-06T08:39:10.594Z,4.68
2023-05-06T08:40:45.188Z,5.43
2023-05-06T08:42:17.351Z,4.47
2023-05-06T08:43:50.760Z,3.88
2023-05-06T08:45:25.191Z,3.85
2023-05-06T08:46:58.851Z,3.63
2023-05-06T08:48:30.599Z,3.80
2023-05-06T08:50:02.577Z,3.63
2023-05-06T08:51:35.156Z,3.33
2023-05-06T08:53:16.988Z,2.90
2023-05-06T08:54:54.579Z,2.60
2023-05-06T08:56:29.272Z,3.05
2023-05-06T08:58:01.461Z,3.67
2023-05-06T08:59:34.649Z,2.65
2023-05-06T09:01:06.729Z,3.25
2023-05-06T09:02:41.268Z,3.40
2023-05-06T09:04:16.542Z,2.85
2023-05-06T09:05:48.245Z,3.50
2023-05-06T09:07:24.405Z,3.35
2023-05-06T09:08:56.233Z,3.85
2023-05-06T09:10:43.819Z,3.80
2023-05-06T09:12:15.657Z,3.35
2023-05-06T09:13:47.773Z,4.55
2023-05-06T09:15:24.277Z,3.72
2023-05-06T09:16:56.127Z,3.90
2023-05-06T09:18:28.971Z,3.38
2023-05-06T09:20:00.862Z,2.95
2023-05-06T09:21:41.932Z,4.07
2023-05-06T09:23:16.260Z,2.85
2023-05-06T09:24:57.007Z,3.00
2023-05-06T09:26:30.708Z,3.13
2023-05-06T09:28:10.907Z,2.70
2023-05-06T09:30:01.044Z,3.20
2023-05-06T09:31:33.266Z,2.63
2023-05-06T09:33:05.259Z,2.83
2023-05-06T09:34:36.944Z,3.85
2023-05-06T09:36:13.222Z,2.47
2023-05-06T09:37:44.966Z,2.78
2023-05-06T09:39:16.626Z,2.75
2023-05-06T09:40:48.266Z,2.95
2023-05-06T09:42:22.459Z,2.95
2023-05-06T09:43:55.416Z,2.50
2023-05-06T09:45:28.316Z,2.58
2023-05-06T09:47:00.119Z,2.25
2023-05-06T09:48:32.062Z,2.10
2023-05-06T09:50:05.110Z,2.63
2023-05-06T09:51:37.073Z,2.22
2023-05-06T09:53:11.750Z,1.92
2023-05-06T09:54:44.571Z,2.08
2023-05-06T09:56:16.431Z,1.92
2023-05-06T09:57:49.987Z,2.13
2023-05-06T09:59:25.331Z,1.88
2023-05-06T10:00:58.018Z,2.42
2023-05-06T10:02:31.120Z,2.15
2023-05-06T10:04:10.507Z,2.40
2023-05-06T10:05:44.196Z,2.13
2023-05-06T10:07:23.143Z,2.08
2023-05-06T10:08:56.642Z,2.33
2023-05-06T10:10:30.153Z,2.42
2023-05-06T10:12:02.399Z,2.17
2023-05-06T10:13:35.678Z,2.30
2023-05-06T10:15:09.228Z,1.80
2023-05-06T10:16:43.034Z,1.85
2023-05-06T10:18:22.509Z,2.17
2023-05-06T10:19:59.162Z,2.70
2023-05-06T10:21:34.448Z,2.10
2023-05-06T10:23:27.673Z,2.05
2023-05-06T10:25:04.523Z,2.03
2023-05-06T10:26:38.150Z,2.10
2023-05-06T10:28:14.399Z,2.03
2023-05-06T10:29:58.725Z,2.03
2023-05-06T10:31:30.900Z,2.15
2023-05-06T10:33:08.049Z,2.03
2023-05-06T10:34:53.069Z,2.25
2023-05-06T10:36:27.838Z,2.20
2023-05-06T10:38:02.210Z,1.95
2023-05-06T10:39:34.012Z,2.22
2023-05-06T10:41:07.506Z,2.63
2023-05-06T10:42:39.103Z,2.22
2023-05-06T10:44:10.931Z,2.38
2023-05-06T10:46:09.769Z,2.22
2023-05-06T10:47:56.880Z,2.25
2023-05-06T10:49:29.160Z,2.35
2023-05-06T10:51:13.945Z,2.10
2023-05-06T10:52:46.245Z,2.75
2023-05-06T10:54:20.898Z,2.50
2023-05-06T10:56:09.097Z,2.17
2023-05-06T10:57:41.490Z,2.22
2023-05-06T10:59:13.108Z,2.30
2023-05-06T11:00:54.672Z,2.05
2023-05-06T11:02:30.262Z,2.10
2023-05-06T11:05:52.019Z,3.50
2023-05-06T11:07:25.023Z,1.90
2023-05-06T11:08:58.319Z,2.70
2023-05-06T11:10:33.426Z,1.98
2023-05-06T11:12:06.380Z,2.53
2023-05-06T11:13:42.006Z,2.60
2023-05-06T11:15:38.946Z,1.85
2023-05-06T11:17:30.214Z,1.83
2023-05-06T11:19:02.488Z,1.67
2023-05-06T11:20:34.050Z,2.08
2023-05-06T11:22:07.088Z,1.80
2023-05-06T11:23:42.022Z,2.00
2023-05-06T11:25:13.905Z,1.85
2023-05-06T11:26:47.725Z,1.70
2023-05-06T11:28:19.332Z,2.35
2023-05-06T11:29:50.908Z,2.05
2023-05-06T11:31:22.798Z,1.83
2023-05-06T11:32:57.369Z,2.03
2023-05-06T11:34:31.249Z,1.48
2023-05-06T11:36:04.755Z,1.33
2023-05-06T11:37:36.366Z,1.60
2023-05-06T11:39:10.790Z,1.58
2023-05-06T11:40:42.725Z,1.75
2023-05-06T11:42:15.674Z,1.75
2023-05-06T11:43:50.019Z,2.15
2023-05-06T11:45:21.780Z,1.85
2023-05-06T11:46:57.197Z,1.75
2023-05-06T11:48:28.794Z,1.60
2023-05-06T11:50:06.446Z,1.42
2023-05-06T11:51:38.057Z,1.70
2023-05-06T11:53:09.669Z,1.45
2023-05-06T11:54:42.637Z,1.63
2023-05-06T11:56:14.479Z,1.35
2023-05-06T11:57:46.922Z,1.40
2023-05-06T11:59:27.293Z,2.35
2023-05-06T12:01:01.091Z,1.65
2023-05-06T12:02:32.761Z,1.48
2023-05-06T12:04:04.621Z,1.42
2023-05-06T12:05:36.358Z,2.17
2023-05-06T12:07:10.125Z,1.80
2023-05-06T12:08:42.140Z,2.05
2023-05-06T12:10:14.254Z,1.73
2023-05-06T12:11:46.144Z,2.13
2023-05-06T12:13:19.100Z,1.48
2023-05-06T12:14:52.980Z,1.45
2023-05-06T12:16:25.965Z,1.40
2023-05-06T12:17:57.991Z,1.83
2023-05-06T12:19:30.644Z,1.70
2023-05-06T12:21:07.323Z,1.63
2023-05-06T12:22:39.100Z,1.60
2023-05-06T12:24:11.857Z,2.33
2023-05-06T12:25:49.112Z,1.60
2023-05-06T12:27:31.059Z,1.70
2023-05-06T12:29:09.121Z,1.83
2023-05-06T12:30:41.193Z,1.83
2023-05-06T12:32:13.023Z,2.17
2023-05-06T12:33:46.528Z,1.90
2023-05-06T12:35:28.558Z,1.67
2023-05-06T12:38:32.230Z,1.52
2023-05-06T12:40:04.114Z,1.77
2023-05-06T12:41:41.654Z,1.52
2023-05-06T12:43:13.309Z,2.63
2023-05-06T12:44:44.889Z,1.90
2023-05-06T12:46:17.240Z,1.73
2023-05-06T12:47:53.665Z,1.60
2023-05-06T12:49:25.992Z,1.73
2023-05-06T12:50:58.348Z,1.63
2023-05-06T12:52:30.646Z,1.58
2023-05-06T12:54:02.674Z,1.45
2023-05-06T12:55:36.127Z,1.83
2023-05-06T12:57:07.875Z,1.65
2023-05-06T12:58:39.822Z,2.53
2023-05-06T13:00:12.402Z,1.48
2023-05-06T13:01:44.466Z,1.70
2023-05-06T13:03:16.279Z,1.95
2023-05-06T13:04:49.281Z,2.45
2023-05-06T13:06:21.144Z,1.98
2023-05-06T13:07:53.953Z,1.58
2023-05-06T13:09:25.974Z,1.60
2023-05-06T13:10:59.652Z,1.60
2023-05-06T13:12:31.331Z,1.35
2023-05-06T13:14:02.879Z,1.50
2023-05-06T13:15:35.021Z,1.20
2023-05-06T13:17:06.919Z,1.30
2023-05-06T13:18:38.980Z,1.42
2023-05-06T13:20:11.560Z,1.42
2023-05-06T13:21:44.191Z,1.48
2023-05-06T13:23:15.753Z,1.70
2023-05-06T13:24:47.364Z,1.73
2023-05-06T13:26:19.067Z,1.52
2023-05-06T13:27:50.738Z,1.48
2023-05-06T13:29:23.535Z,1.95
2023-05-06T13:30:55.321Z,1.90
2023-05-06T13:32:27.166Z,1.70
2023-05-06T13:33:58.846Z,1.92
2023-05-06T13:35:30.581Z,2.05
2023-05-06T13:37:02.097Z,2.13
2023-05-06T13:38:33.803Z,1.65
2023-05-06T13:40:06.416Z,1.77
2023-05-06T13:41:38.199Z,1.60
2023-05-06T13:43:10.002Z,2.63
2023-05-06T13:44:41.648Z,1.33
2023-05-06T13:46:13.271Z,1.80
2023-05-06T13:47:44.882Z,2.30
2023-05-06T13:49:18.739Z,1.35
2023-05-06T13:50:50.470Z,1.67
2023-05-06T13:52:22.048Z,1.50
2023-05-06T13:53:53.679Z,1.23
2023-05-06T13:55:25.386Z,1.65
2023-05-06T13:56:58.210Z,1.67
2023-05-06T13:58:29.939Z,1.48
2023-05-06T14:00:01.656Z,1.50
2023-05-06T14:01:33.561Z,1.92
2023-05-06T14:03:05.272Z,1.65
2023-05-06T14:04:37.166Z,1.42
2023-05-06T14:06:09.024Z,1.60
2023-05-06T14:07:41.490Z,2.03
2023-05-06T14:09:13.098Z,2.15
2023-05-06T14:10:45.244Z,2.03
2023-05-06T14:12:17.422Z,2.35
2023-05-06T14:13:49.881Z,1.60
2023-05-06T14:15:22.018Z,2.22
2023-05-06T14:16:56.086Z,1.73
2023-05-06T14:18:27.948Z,1.95
2023-05-06T14:20:00.356Z,1.77
2023-05-06T14:21:32.900Z,1.90
2023-05-06T14:23:07.266Z,1.83
2023-05-06T14:24:38.896Z,2.30
2023-05-06T14:26:10.542Z,1.67
2023-05-06T14:27:42.272Z,1.90
2023-05-06T14:29:14.248Z,1.73
2023-05-06T14:30:45.896Z,1.90
2023-05-06T14:32:17.513Z,2.50
2023-05-06T14:33:49.122Z,2.63
2023-05-06T14:35:20.913Z,1.83
2023-05-06T14:36:52.812Z,2.03
2023-05-06T14:38:24.929Z,1.90
2023-05-06T14:39:57.890Z,1.73
2023-05-06T14:41:31.327Z,2.05
2023-05-06T14:43:03.771Z,1.80
2023-05-06T14:44:36.308Z,1.52
2023-05-06T14:46:08.746Z,1.65
2023-05-06T14:47:41.274Z,2.00
2023-05-06T14:49:13.042Z,1.63
2023-05-06T14:50:44.589Z,1.90
2023-05-06T14:52:16.219Z,2.22
2023-05-06T14:53:48.147Z,1.75
2023-05-06T14:55:20.382Z,1.85
2023-05-06T14:56:52.007Z,1.75
2023-05-06T14:58:23.728Z,2.13
2023-05-06T14:59:55.310Z,2.13
2023-05-06T15:01:26.930Z,2.08
2023-05-06T15:02:59.287Z,2.30
2023-05-06T15:04:31.110Z,1.63
2023-05-06T15:06:02.916Z,2.20
2023-05-06T15:07:34.689Z,1.85
2023-05-06T15:09:07.170Z,1.65
2023-05-06T15:10:38.839Z,2.35
2023-05-06T15:12:11.411Z,2.50
2023-05-06T15:13:43.474Z,2.10
2023-05-06T15:15:15.084Z,2.17
2023-05-06T15:16:47.105Z,1.92
2023-05-06T15:18:18.741Z,2.05
2023-05-06T15:19:50.573Z,1.85
2023-05-06T15:21:22.212Z,1.63
2023-05-06T15:22:53.917Z,2.35
2023-05-06T15:24:26.186Z,1.92
2023-05-06T15:25:58.244Z,1.90
2023-05-06T15:27:30.723Z,1.83
2023-05-06T15:29:02.412Z,2.03
2023-05-06T15:30:33.957Z,2.40
2023-05-06T15:32:06.069Z,1.77
2023-05-06T15:33:37.749Z,2.00
2023-05-06T15:35:09.665Z,1.83
2023-05-06T15:36:41.717Z,1.77
2023-05-06T15:38:13.280Z,3.10
2023-05-06T15:39:45.549Z,1.90
2023-05-06T15:41:17.915Z,1.98
2023-05-06T15:42:49.530Z,1.98
2023-05-06T15:44:21.386Z,3.00
2023-05-06T15:45:53.090Z,1.98
2023-05-06T15:47:24.865Z,2.03
2023-05-06T15:49:15.746Z,2.28
2023-05-06T15:50:48.435Z,2.67
2023-05-06T15:52:21.184Z,2.53
2023-05-06T15:53:52.838Z,2.40
2023-05-06T15:55:25.391Z,2.10
2023-05-06T15:57:00.384Z,2.30
2023-05-06T15:58:33.973Z,1.98
2023-05-06T16:00:08.064Z,1.90
2023-05-06T16:03:16.195Z,2.10
2023-05-06T16:04:49.780Z,1.83
2023-05-06T16:06:22.042Z,2.97
2023-05-06T16:07:55.769Z,2.40
2023-05-06T16:09:27.388Z,1.92
2023-05-06T16:10:59.134Z,2.00
2023-05-06T16:12:32.683Z,2.63
2023-05-06T16:14:05.553Z,1.92
2023-05-06T16:15:37.530Z,2.30
2023-05-06T16:17:09.182Z,2.65
2023-05-06T16:18:40.819Z,1.83
2023-05-06T16:20:12.916Z,2.13
2023-05-06T16:21:44.805Z,2.08
2023-05-06T16:23:16.781Z,1.95
2023-05-06T16:24:48.841Z,2.03
2023-05-06T16:26:21.648Z,2.03
2023-05-06T16:27:56.763Z,2.20
2023-05-06T16:29:28.458Z,2.03
2023-05-06T16:31:02.699Z,2.13
2023-05-06T16:32:34.427Z,2.10
2023-05-06T16:34:06.876Z,1.70
2023-05-06T16:35:38.981Z,1.80
2023-05-06T16:37:10.581Z,2.20
2023-05-06T16:38:42.368Z,2.13
2023-05-06T16:40:17.175Z,2.17
2023-05-06T16:41:48.795Z,2.63
2023-05-06T16:43:20.675Z,2.90
2023-05-06T16:44:52.361Z,2.65
2023-05-06T16:46:24.784Z,1.75
2023-05-06T16:47:56.646Z,2.05
2023-05-06T16:49:28.278Z,2.15
2023-05-06T16:50:59.880Z,2.20
2023-05-06T16:52:31.758Z,2.28
2023-05-06T16:54:03.596Z,2.95
2023-05-06T16:55:35.611Z,3.10
2023-05-06T16:57:07.522Z,3.97
2023-05-06T16:58:40.278Z,3.00
2023-05-06T17:00:13.637Z,2.72
2023-05-06T17:01:46.323Z,2.45
2023-05-06T17:03:18.131Z,2.22
2023-05-06T17:04:50.503Z,2.40
2023-05-06T17:06:25.191Z,3.90
2023-05-06T17:07:57.953Z,3.35
2023-05-06T17:09:30.734Z,3.15
2023-05-06T17:11:06.240Z,2.33
2023-05-06T17:12:39.354Z,2.55
2023-05-06T17:14:11.856Z,2.50
2023-05-06T17:15:44.930Z,3.80
2023-05-06T17:17:18.601Z,2.58
2023-05-06T17:18:52.980Z,2.42
2023-05-06T17:20:25.958Z,2.92
2023-05-06T17:21:58.945Z,2.80
2023-05-06T17:23:31.488Z,2.83
2023-05-06T17:25:05.292Z,3.45
2023-05-06T17:26:41.189Z,3.30
2023-05-06T17:29:47.258Z,2.65
2023-05-06T17:31:19.961Z,2.60
2023-05-06T17:32:53.348Z,2.28
2023-05-06T17:34:26.495Z,2.50
2023-05-06T17:35:59.291Z,2.53
2023-05-06T17:37:32.502Z,2.70
2023-05-06T17:39:06.369Z,2.25
2023-05-06T17:40:39.171Z,2.63
2023-05-06T17:42:11.907Z,2.20
2023-05-06T17:43:47.587Z,2.88
2023-05-06T17:45:20.533Z,2.83
2023-05-06T17:46:53.143Z,2.78
2023-05-06T17:48:26.039Z,2.63
2023-05-06T17:49:58.569Z,2.53
2023-05-06T17:51:31.164Z,2.85
2023-05-06T17:53:03.774Z,2.75
2023-05-06T17:54:38.004Z,3.25
2023-05-06T17:56:10.250Z,2.75
2023-05-06T17:57:42.600Z,3.03
2023-05-06T17:59:15.271Z,2.63
2023-05-06T18:00:47.482Z,2.67
2023-05-06T18:02:19.537Z,2.63
2023-05-06T18:03:51.502Z,2.40
2023-05-06T18:05:26.134Z,2.72
2023-05-06T18:06:59.021Z,3.83
2023-05-06T18:08:31.410Z,3.35
2023-05-06T18:10:04.380Z,3.35
2023-05-06T18:11:41.084Z,3.17
2023-05-06T18:13:13.711Z,3.38
2023-05-06T18:14:48.094Z,3.05
2023-05-06T18:16:20.561Z,2.80
2023-05-06T18:17:53.035Z,2.70
2023-05-06T18:19:25.922Z,2.55
2023-05-06T18:20:58.462Z,3.00
2023-05-06T18:22:30.761Z,2.85
2023-05-06T18:24:15.226Z,2.72
2023-05-06T18:25:49.735Z,2.88
2023-05-06T18:27:23.160Z,4.03
2023-05-06T18:28:57.563Z,3.60
2023-05-06T18:30:30.186Z,2.90
2023-05-06T18:32:02.924Z,3.53
2023-05-06T18:33:36.204Z,4.00
2023-05-06T18:35:08.429Z,3.53
2023-05-06T18:36:41.584Z,3.83
2023-05-06T18:38:14.720Z,3.60
2023-05-06T18:39:48.116Z,3.45
2023-05-06T18:41:22.042Z,3.20
2023-05-06T18:42:57.325Z,3.38
2023-05-06T18:44:30.725Z,3.13
2023-05-06T18:46:05.702Z,4.47
2023-05-06T18:47:40.626Z,3.70
2023-05-06T18:49:14.881Z,3.40
2023-05-06T18:50:47.685Z,3.60
2023-05-06T18:52:20.501Z,3.17
2023-05-06T18:53:53.060Z,3.30
2023-05-06T18:55:26.118Z,2.70
2023-05-06T18:56:59.092Z,3.42
2023-05-06T18:58:31.885Z,2.65
2023-05-06T19:00:07.868Z,3.30
2023-05-06T19:01:41.164Z,3.13
2023-05-06T19:03:13.805Z,3.10
2023-05-06T19:04:47.288Z,3.33
2023-05-06T19:06:20.266Z,4.22
2023-05-06T19:07:52.759Z,3.75
2023-05-06T19:09:25.112Z,3.75
2023-05-06T19:10:59.983Z,3.58
2023-05-06T19:12:32.973Z,3.65
2023-05-06T19:14:05.770Z,3.17
2023-05-06T19:15:38.485Z,3.55
2023-05-06T19:17:11.739Z,3.45
2023-05-06T19:18:45.115Z,3.20
2023-05-06T19:20:17.500Z,3.47
2023-05-06T19:21:51.906Z,4.20
2023-05-06T19:23:26.119Z,3.95
2023-05-06T19:24:59.267Z,3.55
2023-05-06T19:26:32.514Z,4.13
2023-05-06T19:28:10.517Z,3.63
2023-05-06T19:29:44.821Z,3.95
2023-05-06T19:31:17.240Z,3.17
2023-05-06T19:32:49.633Z,3.30
2023-05-06T19:34:22.695Z,3.90
2023-05-06T19:35:56.480Z,4.40
2023-05-06T19:37:30.833Z,3.30
2023-05-06T19:39:03.867Z,3.20
2023-05-06T19:40:37.031Z,2.83
2023-05-06T19:42:08.926Z,3.25
2023-05-06T19:43:44.455Z,3.20
2023-05-06T19:45:17.514Z,2.63
2023-05-06T19:46:54.419Z,3.17
2023-05-06T19:48:26.116Z,2.92
2023-05-06T19:49:57.881Z,4.15
2023-05-06T19:51:29.870Z,3.33
2023-05-06T19:53:01.717Z,3.60
2023-05-06T19:54:33.708Z,3.55
2023-05-06T19:56:13.204Z,2.97
2023-05-06T19:57:44.886Z,2.80
2023-05-06T19:59:17.569Z,4.07
2023-05-06T20:00:49.600Z,4.45
2023-05-06T20:02:21.380Z,3.65
2023-05-06T20:03:53.190Z,3.60
2023-05-06T20:05:29.610Z,3.05
2023-05-06T20:07:01.344Z,4.13
2023-05-06T20:08:33.260Z,2.65
2023-05-06T20:10:05.376Z,2.83
2023-05-06T20:11:37.156Z,2.83
2023-05-06T20:13:10.642Z,2.63
2023-05-06T20:14:42.478Z,3.20
2023-05-06T20:16:14.329Z,2.83
2023-05-06T20:17:46.128Z,3.08
2023-05-06T20:19:19.090Z,2.92
2023-05-06T20:20:51.097Z,2.88
2023-05-06T20:22:22.895Z,2.60
2023-05-06T20:23:54.630Z,3.45
2023-05-06T20:25:27.560Z,4.43
2023-05-06T20:26:59.302Z,3.58
2023-05-06T20:28:32.013Z,3.67
2023-05-06T20:30:04.282Z,3.33
2023-05-06T20:31:36.063Z,3.72
2023-05-06T20:33:08.144Z,3.20
2023-05-06T20:34:39.843Z,3.50
2023-05-06T20:36:11.599Z,4.70
2023-05-06T20:37:44.116Z,3.90
2023-05-06T20:39:15.848Z,3.85
2023-05-06T20:40:48.001Z,4.13
2023-05-06T20:42:19.627Z,3.92
2023-05-06T20:43:52.889Z,4.82
2023-05-06T20:45:24.749Z,4.20
2023-05-06T20:46:56.485Z,3.55
2023-05-06T20:48:28.180Z,5.15